createdAt,value
2017-08-26T00:01:27.692Z,21.30
2017-08-26T00:03:55.559Z,21.30
2017-08-26T00:06:23.289Z,21.40
2017-08-26T00:08:51.056Z,21.30
2017-08-26T00:11:18.771Z,21.30
2017-08-26T00:13:46.618Z,21.30
2017-08-26T00:16:14.486Z,21.30
2017-08-26T00:18:42.353Z,21.30
2017-08-26T00:21:10.219Z,21.30
2017-08-26T00:23:37.938Z,21.20
2017-08-26T00:26:05.750Z,21.20
2017-08-26T00:28:33.465Z,21.20
2017-08-26T00:31:01.231Z,21.10
2017-08-26T00:33:28.966Z,21.10
2017-08-26T00:35:56.809Z,21.00
2017-08-26T00:38:24.534Z,21.00
2017-08-26T00:40:52.287Z,20.80
2017-08-26T00:43:20.206Z,20.60
2017-08-26T00:45:48.080Z,20.60
2017-08-26T00:48:15.834Z,20.60
2017-08-26T00:50:43.707Z,20.50
2017-08-26T00:53:11.463Z,20.50
2017-08-26T00:55:39.235Z,20.50
2017-08-26T00:58:07.105Z,20.50
2017-08-26T01:00:34.841Z,20.50
2017-08-26T01:03:02.746Z,20.40
2017-08-26T01:05:30.603Z,20.40
2017-08-26T01:07:58.576Z,20.40
2017-08-26T01:10:26.438Z,20.30
2017-08-26T01:12:54.199Z,20.30
2017-08-26T01:15:21.946Z,20.40
2017-08-26T01:17:49.836Z,20.30
2017-08-26T01:20:17.704Z,20.30
2017-08-26T01:22:45.499Z,20.30
2017-08-26T01:25:13.231Z,20.20
2017-08-26T01:27:41.103Z,20.20
2017-08-26T01:30:08.835Z,20.20
2017-08-26T01:32:36.621Z,20.10
2017-08-26T01:35:04.495Z,20.10
2017-08-26T01:37:32.366Z,20.10
2017-08-26T01:40:00.230Z,20.10
2017-08-26T01:42:28.098Z,20.10
2017-08-26T01:44:55.965Z,20.10
2017-08-26T01:47:23.832Z,20.10
2017-08-26T01:49:51.570Z,20.10
2017-08-26T01:52:19.303Z,20.00
2017-08-26T01:54:47.126Z,20.10
2017-08-26T01:57:14.869Z,20.00
2017-08-26T01:59:42.656Z,20.00
2017-08-26T02:02:10.528Z,20.00
2017-08-26T02:04:38.390Z,20.00
2017-08-26T02:07:06.257Z,20.00
2017-08-26T02:09:33.998Z,20.00
2017-08-26T02:12:01.893Z,19.80
2017-08-26T02:14:29.757Z,19.80
2017-08-26T02:16:57.625Z,19.80
2017-08-26T02:19:25.350Z,19.90
2017-08-26T02:21:53.079Z,19.90
2017-08-26T02:24:20.812Z,20.00
2017-08-26T02:26:48.540Z,19.70
2017-08-26T02:29:16.268Z,19.60
2017-08-26T02:31:44.008Z,19.70
2017-08-26T02:34:11.734Z,19.80
2017-08-26T02:36:39.459Z,19.90
2017-08-26T02:39:07.214Z,19.90
2017-08-26T02:41:34.942Z,20.00
2017-08-26T02:44:02.658Z,19.90
2017-08-26T02:46:30.505Z,19.90
2017-08-26T02:48:58.230Z,19.90
2017-08-26T02:51:25.942Z,20.00
2017-08-26T02:53:53.675Z,20.00
2017-08-26T02:56:21.397Z,20.00
2017-08-26T02:58:49.115Z,20.10
2017-08-26T03:01:16.846Z,20.10
2017-08-26T03:03:44.572Z,20.20
2017-08-26T03:06:12.294Z,20.20
2017-08-26T03:08:40.011Z,20.20
2017-08-26T03:11:07.836Z,20.20
2017-08-26T03:13:35.558Z,20.20
2017-08-26T03:16:03.286Z,20.20
2017-08-26T03:18:31.018Z,20.20
2017-08-26T03:20:58.896Z,20.20
2017-08-26T03:23:26.766Z,20.30
2017-08-26T03:25:54.482Z,20.30
2017-08-26T03:28:22.213Z,20.30
2017-08-26T03:30:49.952Z,20.30
2017-08-26T03:33:17.683Z,20.30
2017-08-26T03:35:45.406Z,20.30
2017-08-26T03:38:13.122Z,20.40
2017-08-26T03:40:40.838Z,20.40
2017-08-26T03:43:08.553Z,20.40
2017-08-26T03:45:36.333Z,20.40
2017-08-26T03:48:04.062Z,20.40
2017-08-26T03:50:31.779Z,20.40
2017-08-26T03:52:59.538Z,20.40
2017-08-26T03:55:27.258Z,20.40
2017-08-26T03:57:55.061Z,20.30
2017-08-26T04:00:22.806Z,20.30
2017-08-26T04:02:50.592Z,20.40
2017-08-26T04:05:18.460Z,20.40
2017-08-26T04:07:46.325Z,20.30
2017-08-26T04:10:14.192Z,20.30
2017-08-26T04:12:42.060Z,20.30
2017-08-26T04:15:09.931Z,20.30
2017-08-26T04:17:37.670Z,20.30
2017-08-26T04:20:05.393Z,20.30
2017-08-26T04:22:33.114Z,20.30
2017-08-26T04:25:00.826Z,20.30
2017-08-26T04:27:28.653Z,20.30
2017-08-26T04:29:56.371Z,20.20
2017-08-26T04:32:24.461Z,20.20
2017-08-26T04:34:52.195Z,20.20
2017-08-26T04:37:19.971Z,20.20
2017-08-26T04:39:51.292Z,20.20
2017-08-26T04:42:23.019Z,20.10
2017-08-26T04:44:54.334Z,20.10
2017-08-26T04:47:25.572Z,20.10
2017-08-26T04:49:56.598Z,20.00
2017-08-26T04:52:28.982Z,20.00
2017-08-26T04:55:01.485Z,20.00
2017-08-26T04:57:33.980Z,19.90
2017-08-26T05:00:05.472Z,19.70
2017-08-26T05:02:36.662Z,19.20
2017-08-26T05:05:07.548Z,19.00
2017-08-26T05:07:38.322Z,19.20
2017-08-26T05:10:08.829Z,19.30
2017-08-26T05:12:39.532Z,19.50
2017-08-26T05:15:11.361Z,19.50
2017-08-26T05:17:42.365Z,19.50
2017-08-26T05:20:14.199Z,19.60
2017-08-26T05:22:45.550Z,19.70
2017-08-26T05:25:17.154Z,19.50
2017-08-26T05:27:48.364Z,19.20
2017-08-26T05:30:21.101Z,19.30
2017-08-26T05:32:52.691Z,19.30
2017-08-26T05:35:26.793Z,19.60
2017-08-26T05:37:57.730Z,19.80
2017-08-26T05:40:25.583Z,19.90
2017-08-26T05:42:53.334Z,20.10
2017-08-26T05:45:21.099Z,20.20
2017-08-26T05:47:48.843Z,20.40
2017-08-26T05:50:16.587Z,20.40
2017-08-26T05:52:44.331Z,20.50
2017-08-26T05:55:12.062Z,20.60
2017-08-26T05:57:39.789Z,20.70
2017-08-26T06:00:07.555Z,20.40
2017-08-26T06:02:35.279Z,20.40
2017-08-26T06:05:03.007Z,20.50
2017-08-26T06:07:30.742Z,20.50
2017-08-26T06:09:58.474Z,20.60
2017-08-26T06:12:26.206Z,20.80
2017-08-26T06:14:53.932Z,21.00
2017-08-26T06:17:21.658Z,21.10
2017-08-26T06:19:49.396Z,21.20
2017-08-26T06:22:17.110Z,21.20
2017-08-26T06:24:44.836Z,21.50
2017-08-26T06:27:12.558Z,22.10
2017-08-26T06:29:40.293Z,22.90
2017-08-26T06:32:08.012Z,23.60
2017-08-26T06:34:35.723Z,24.00
2017-08-26T06:37:03.446Z,24.50
2017-08-26T06:39:31.178Z,24.80
2017-08-26T06:41:58.895Z,25.20
2017-08-26T06:44:26.609Z,25.60
2017-08-26T06:46:54.334Z,25.90
2017-08-26T06:49:22.066Z,26.00
2017-08-26T06:51:49.793Z,26.20
2017-08-26T06:54:17.515Z,26.70
2017-08-26T06:56:45.234Z,27.00
2017-08-26T06:59:12.947Z,26.90
2017-08-26T07:01:40.663Z,27.00
2017-08-26T07:04:08.375Z,26.90
2017-08-26T07:06:36.082Z,26.80
2017-08-26T07:09:03.908Z,26.40
2017-08-26T07:11:31.624Z,25.80
2017-08-26T07:13:59.350Z,25.40
2017-08-26T07:16:27.059Z,25.00
2017-08-26T07:18:54.775Z,24.70
2017-08-26T07:21:22.498Z,24.70
2017-08-26T07:23:50.229Z,25.00
2017-08-26T07:26:17.950Z,25.20
2017-08-26T07:28:45.666Z,25.20
2017-08-26T07:31:13.390Z,25.10
2017-08-26T07:33:41.125Z,25.00
2017-08-26T07:36:08.862Z,25.10
2017-08-26T07:38:36.583Z,25.00
2017-08-26T07:41:04.307Z,24.80
2017-08-26T07:43:32.026Z,24.70
2017-08-26T07:45:59.743Z,24.60
2017-08-26T07:48:27.459Z,24.50
2017-08-26T07:50:55.262Z,24.30
2017-08-26T07:53:22.982Z,24.20
2017-08-26T07:55:50.701Z,24.20
2017-08-26T07:58:18.418Z,24.30
2017-08-26T08:00:46.197Z,24.30
2017-08-26T08:03:13.942Z,24.20
2017-08-26T08:05:41.663Z,23.80
2017-08-26T08:08:09.386Z,23.40
2017-08-26T08:10:37.102Z,23.30
2017-08-26T08:13:04.830Z,23.00
2017-08-26T08:15:32.550Z,22.70
2017-08-26T08:18:00.271Z,22.40
2017-08-26T08:20:27.993Z,22.40
2017-08-26T08:22:55.719Z,22.40
2017-08-26T08:25:23.438Z,22.20
2017-08-26T08:27:51.159Z,22.10
2017-08-26T08:30:18.883Z,21.90
2017-08-26T08:32:46.603Z,21.70
2017-08-26T08:35:14.330Z,21.50
2017-08-26T08:37:42.050Z,21.30
2017-08-26T08:40:09.823Z,21.30
2017-08-26T08:42:37.558Z,21.40
2017-08-26T08:45:05.283Z,21.50
2017-08-26T08:47:33.059Z,21.60
2017-08-26T08:50:00.784Z,21.70
2017-08-26T08:52:28.498Z,21.90
2017-08-26T08:54:56.343Z,22.00
2017-08-26T08:57:24.116Z,22.10
2017-08-26T08:59:51.842Z,22.40
2017-08-26T09:02:19.740Z,22.90
2017-08-26T09:04:47.607Z,23.40
2017-08-26T09:07:15.474Z,23.70
2017-08-26T09:09:43.341Z,23.70
2017-08-26T09:12:11.208Z,24.10
2017-08-26T09:14:39.076Z,24.30
2017-08-26T09:17:07.046Z,24.60
2017-08-26T09:19:34.779Z,25.20
2017-08-26T09:22:02.501Z,25.40
2017-08-26T09:24:30.223Z,25.30
2017-08-26T09:26:57.943Z,25.30
2017-08-26T09:29:26.382Z,25.50
2017-08-26T09:31:54.103Z,25.70
2017-08-26T09:34:21.834Z,25.80
2017-08-26T09:36:50.087Z,25.80
2017-08-26T09:39:17.953Z,25.60
2017-08-26T09:41:45.820Z,25.90
2017-08-26T09:44:13.687Z,25.80
2017-08-26T09:46:41.660Z,26.10
2017-08-26T09:49:09.940Z,26.40
2017-08-26T09:51:37.904Z,26.60
2017-08-26T09:54:05.771Z,26.90
2017-08-26T09:56:33.575Z,26.80
2017-08-26T09:59:01.403Z,26.60
2017-08-26T10:01:29.270Z,26.70
2017-08-26T10:03:57.138Z,26.60
2017-08-26T10:06:25.008Z,26.90
2017-08-26T10:08:52.873Z,27.30
2017-08-26T10:11:20.739Z,27.70
2017-08-26T10:13:48.607Z,27.80
2017-08-26T10:16:16.474Z,27.40
2017-08-26T10:18:44.230Z,27.40
2017-08-26T10:21:11.958Z,27.50
2017-08-26T10:23:39.702Z,27.70
2017-08-26T10:26:07.430Z,28.00
2017-08-26T10:28:35.182Z,28.40
2017-08-26T10:31:03.015Z,28.20
2017-08-26T10:33:30.776Z,28.20
2017-08-26T10:35:58.592Z,28.30
2017-08-26T10:38:26.460Z,28.70
2017-08-26T10:40:54.327Z,29.00
2017-08-26T10:43:22.195Z,29.20
2017-08-26T10:45:50.062Z,29.40
2017-08-26T10:48:17.929Z,29.10
2017-08-26T10:50:45.796Z,29.10
2017-08-26T10:53:13.662Z,28.90
2017-08-26T10:55:41.530Z,29.00
2017-08-26T10:58:09.500Z,28.60
2017-08-26T11:00:37.367Z,28.50
2017-08-26T11:03:05.234Z,28.70
2017-08-26T11:05:33.102Z,29.10
2017-08-26T11:08:00.969Z,29.60
2017-08-26T11:10:28.840Z,30.20
2017-08-26T11:12:56.706Z,30.30
2017-08-26T11:15:24.572Z,30.40
2017-08-26T11:17:52.441Z,30.20
2017-08-26T11:20:20.310Z,30.40
2017-08-26T11:22:48.178Z,30.60
2017-08-26T11:25:16.043Z,30.80
2017-08-26T11:27:43.908Z,31.00
2017-08-26T11:30:11.785Z,30.70
2017-08-26T11:32:39.642Z,30.90
2017-08-26T11:35:07.509Z,30.90
2017-08-26T11:37:36.219Z,30.50
2017-08-26T11:40:04.167Z,30.30
2017-08-26T11:42:31.929Z,30.50
2017-08-26T11:45:00.004Z,30.20
2017-08-26T11:47:27.869Z,30.40
2017-08-26T11:49:55.736Z,30.70
2017-08-26T11:52:23.609Z,31.20
2017-08-26T11:54:51.475Z,31.30
2017-08-26T11:57:19.343Z,31.50
2017-08-26T11:59:47.205Z,31.80
2017-08-26T12:02:15.072Z,31.90
2017-08-26T12:04:42.942Z,32.10
2017-08-26T12:07:10.808Z,32.00
2017-08-26T12:09:38.674Z,31.70
2017-08-26T12:12:06.541Z,31.40
2017-08-26T12:14:34.409Z,31.40
2017-08-26T12:17:02.206Z,31.20
2017-08-26T12:19:30.145Z,31.50
2017-08-26T12:21:58.012Z,31.50
2017-08-26T12:24:25.877Z,31.50
2017-08-26T12:26:53.745Z,31.60
2017-08-26T12:29:21.612Z,31.70
2017-08-26T12:31:49.582Z,31.80
2017-08-26T12:34:17.453Z,31.90
2017-08-26T12:36:45.317Z,32.30
2017-08-26T12:39:13.183Z,32.60
2017-08-26T12:41:41.075Z,33.00
2017-08-26T12:44:08.918Z,33.50
2017-08-26T12:46:36.785Z,33.70
2017-08-26T12:49:04.653Z,33.70
2017-08-26T12:51:32.519Z,33.80
2017-08-26T12:54:00.387Z,33.90
2017-08-26T12:56:28.253Z,34.00
2017-08-26T12:58:56.121Z,34.10
2017-08-26T13:01:23.988Z,34.30
2017-08-26T13:03:51.855Z,34.70
2017-08-26T13:06:19.723Z,34.90
2017-08-26T13:08:47.594Z,35.00
2017-08-26T13:11:15.457Z,35.00
2017-08-26T13:13:43.324Z,35.00
2017-08-26T13:16:11.191Z,35.00
2017-08-26T13:18:39.059Z,35.10
2017-08-26T13:21:06.926Z,35.00
2017-08-26T13:23:34.794Z,34.90
2017-08-26T13:26:02.668Z,35.00
2017-08-26T13:28:30.528Z,35.10
2017-08-26T13:30:58.396Z,35.30
2017-08-26T13:33:26.262Z,35.30
2017-08-26T13:35:54.130Z,35.20
2017-08-26T13:38:21.996Z,34.90
2017-08-26T13:40:49.865Z,34.70
2017-08-26T13:43:17.731Z,34.90
2017-08-26T13:45:45.598Z,34.90
2017-08-26T13:48:13.465Z,34.80
2017-08-26T13:50:41.231Z,34.70
2017-08-26T13:53:09.097Z,34.50
2017-08-26T13:55:36.968Z,34.40
2017-08-26T13:58:04.832Z,34.30
2017-08-26T14:00:32.699Z,34.40
2017-08-26T14:03:00.566Z,34.50
2017-08-26T14:05:28.433Z,34.50
2017-08-26T14:07:56.299Z,34.70
2017-08-26T14:10:24.168Z,34.70
2017-08-26T14:12:52.036Z,34.80
2017-08-26T14:15:19.902Z,35.00
2017-08-26T14:17:47.769Z,35.10
2017-08-26T14:20:15.636Z,35.00
2017-08-26T14:22:43.503Z,34.90
2017-08-26T14:25:14.357Z,34.60
2017-08-26T14:27:45.672Z,34.20
2017-08-26T14:30:18.263Z,33.90
2017-08-26T14:32:49.449Z,33.70
2017-08-26T14:35:21.963Z,33.60
2017-08-26T14:37:53.399Z,33.40
2017-08-26T14:40:24.598Z,33.10
2017-08-26T14:42:53.835Z,33.10
2017-08-26T14:45:21.679Z,33.10
2017-08-26T14:47:51.102Z,33.00
2017-08-26T14:50:20.171Z,33.00
2017-08-26T14:52:48.021Z,32.80
2017-08-26T14:55:16.406Z,32.70
2017-08-26T14:57:47.543Z,32.60
2017-08-26T15:00:18.071Z,32.40
2017-08-26T15:02:51.281Z,32.40
2017-08-26T15:05:23.619Z,32.40
2017-08-26T15:07:55.905Z,32.50
2017-08-26T15:10:28.068Z,32.60
2017-08-26T15:13:01.264Z,32.70
2017-08-26T15:15:34.393Z,32.70
2017-08-26T15:18:05.288Z,32.80
2017-08-26T15:20:35.479Z,32.90
2017-08-26T15:23:06.651Z,32.90
2017-08-26T15:25:42.651Z,32.80
2017-08-26T15:28:10.483Z,32.80
2017-08-26T15:30:38.359Z,32.70
2017-08-26T15:33:06.223Z,32.70
2017-08-26T15:35:37.245Z,32.50
2017-08-26T15:38:08.659Z,32.50
2017-08-26T15:40:40.267Z,32.40
2017-08-26T15:43:11.502Z,32.40
2017-08-26T15:45:43.658Z,32.40
2017-08-26T15:48:15.403Z,32.40
2017-08-26T15:50:48.089Z,32.30
2017-08-26T15:53:21.128Z,32.20
2017-08-26T15:55:55.688Z,32.20
2017-08-26T15:58:28.600Z,32.30
2017-08-26T16:01:01.995Z,32.20
2017-08-26T16:03:32.882Z,32.10
2017-08-26T16:06:04.119Z,31.90
2017-08-26T16:08:34.435Z,31.90
2017-08-26T16:11:04.189Z,31.80
2017-08-26T16:13:34.431Z,31.70
2017-08-26T16:16:05.842Z,31.60
2017-08-26T16:18:37.891Z,31.50
2017-08-26T16:21:10.145Z,31.50
2017-08-26T16:23:42.803Z,31.50
2017-08-26T16:26:14.927Z,31.50
2017-08-26T16:28:46.693Z,31.40
2017-08-26T16:31:18.126Z,31.30
2017-08-26T16:33:45.975Z,31.20
2017-08-26T16:36:17.326Z,31.20
2017-08-26T16:38:51.751Z,31.10
2017-08-26T16:41:22.936Z,31.10
2017-08-26T16:43:53.810Z,30.90
2017-08-26T16:46:25.495Z,30.80
2017-08-26T16:48:58.393Z,30.70
2017-08-26T16:51:29.939Z,30.60
2017-08-26T16:54:01.237Z,30.50
2017-08-26T16:56:32.943Z,30.40
2017-08-26T16:59:04.650Z,30.20
2017-08-26T17:01:36.757Z,30.20
2017-08-26T17:04:08.307Z,30.10
2017-08-26T17:06:39.163Z,30.00
2017-08-26T17:09:10.284Z,29.80
2017-08-26T17:11:41.180Z,29.80
2017-08-26T17:14:10.973Z,29.60
2017-08-26T17:16:40.369Z,29.40
2017-08-26T17:19:14.154Z,29.30
2017-08-26T17:21:45.865Z,29.10
2017-08-26T17:24:17.330Z,29.00
2017-08-26T17:26:48.833Z,28.80
2017-08-26T17:29:21.475Z,28.60
2017-08-26T17:31:53.809Z,28.60
2017-08-26T17:34:26.071Z,28.40
2017-08-26T17:36:58.279Z,28.40
2017-08-26T17:39:30.197Z,28.30
2017-08-26T17:42:02.301Z,28.20
2017-08-26T17:44:37.939Z,28.10
2017-08-26T17:47:09.498Z,28.00
2017-08-26T17:49:40.737Z,27.90
2017-08-26T17:52:11.582Z,27.80
2017-08-26T17:54:42.881Z,27.70
2017-08-26T17:57:15.341Z,27.30
2017-08-26T17:59:47.901Z,27.10
2017-08-26T18:02:20.455Z,26.90
2017-08-26T18:04:52.789Z,26.80
2017-08-26T18:07:24.785Z,26.80
2017-08-26T18:09:56.832Z,26.70
2017-08-26T18:12:28.455Z,26.50
2017-08-26T18:14:59.794Z,26.30
2017-08-26T18:17:29.939Z,26.20
2017-08-26T18:20:00.170Z,26.10
2017-08-26T18:22:30.959Z,25.90
2017-08-26T18:25:01.584Z,25.80
2017-08-26T18:27:33.369Z,25.70
2017-08-26T18:30:05.444Z,25.70
2017-08-26T18:32:37.442Z,25.70
2017-08-26T18:35:05.179Z,25.70
2017-08-26T18:37:32.903Z,25.60
2017-08-26T18:40:00.623Z,25.50
2017-08-26T18:42:28.350Z,25.40
2017-08-26T18:44:56.071Z,25.20
2017-08-26T18:47:23.790Z,25.10
2017-08-26T18:49:51.511Z,25.20
2017-08-26T18:52:19.231Z,25.20
2017-08-26T18:54:46.954Z,25.20
2017-08-26T18:57:14.682Z,25.20
2017-08-26T18:59:42.406Z,25.20
2017-08-26T19:02:10.122Z,25.20
2017-08-26T19:04:38.818Z,25.10
2017-08-26T19:07:06.547Z,25.10
2017-08-26T19:09:34.290Z,25.10
2017-08-26T19:12:02.016Z,25.10
2017-08-26T19:14:29.838Z,25.00
2017-08-26T19:16:57.557Z,25.00
2017-08-26T19:19:26.454Z,24.90
2017-08-26T19:21:54.209Z,24.90
2017-08-26T19:24:21.947Z,24.80
2017-08-26T19:26:49.674Z,24.80
2017-08-26T19:29:17.775Z,24.80
2017-08-26T19:31:45.502Z,24.70
2017-08-26T19:34:13.258Z,24.70
2017-08-26T19:36:40.986Z,24.60
2017-08-26T19:39:08.746Z,24.60
2017-08-26T19:41:36.466Z,24.50
2017-08-26T19:44:04.222Z,24.50
2017-08-26T19:46:31.953Z,24.40
2017-08-26T19:48:59.683Z,24.30
2017-08-26T19:51:27.542Z,24.30
2017-08-26T19:53:55.267Z,24.30
2017-08-26T19:56:22.994Z,24.30
2017-08-26T19:58:50.758Z,24.20
2017-08-26T20:01:18.487Z,24.20
2017-08-26T20:03:46.226Z,24.10
2017-08-26T20:06:13.953Z,24.10
2017-08-26T20:08:41.671Z,24.10
2017-08-26T20:11:09.407Z,24.00
2017-08-26T20:13:37.132Z,24.00
2017-08-26T20:16:04.859Z,23.90
2017-08-26T20:18:32.583Z,23.90
2017-08-26T20:21:00.335Z,23.90
2017-08-26T20:23:28.066Z,23.80
2017-08-26T20:25:55.790Z,23.80
2017-08-26T20:28:23.508Z,23.70
2017-08-26T20:30:51.223Z,23.70
2017-08-26T20:33:18.943Z,23.60
2017-08-26T20:35:46.944Z,23.60
2017-08-26T20:38:14.706Z,23.50
2017-08-26T20:40:42.422Z,23.50
2017-08-26T20:43:10.161Z,23.40
2017-08-26T20:45:37.903Z,23.40
2017-08-26T20:48:05.624Z,23.30
2017-08-26T20:50:33.350Z,23.20
2017-08-26T20:53:01.114Z,23.10
2017-08-26T20:55:28.904Z,23.10
2017-08-26T20:57:56.679Z,23.00
2017-08-26T21:00:24.449Z,22.90
2017-08-26T21:02:52.211Z,22.90
2017-08-26T21:05:20.003Z,22.70
2017-08-26T21:07:47.727Z,22.60
2017-08-26T21:10:15.446Z,22.50
2017-08-26T21:12:43.241Z,22.30
2017-08-26T21:15:10.966Z,22.40
2017-08-26T21:17:38.706Z,22.40
2017-08-26T21:20:06.430Z,22.40
2017-08-26T21:22:34.150Z,22.50
2017-08-26T21:25:01.878Z,22.50
2017-08-26T21:27:29.607Z,22.30
2017-08-26T21:29:57.359Z,22.40
2017-08-26T21:32:25.091Z,22.40
2017-08-26T21:34:52.827Z,22.40
2017-08-26T21:37:20.557Z,22.40
2017-08-26T21:39:48.287Z,22.40
2017-08-26T21:42:16.035Z,22.30
2017-08-26T21:44:43.762Z,22.30
2017-08-26T21:47:11.492Z,22.30
2017-08-26T21:49:39.227Z,22.20
2017-08-26T21:52:06.970Z,22.20
2017-08-26T21:54:34.693Z,22.30
2017-08-26T21:57:02.476Z,22.20
2017-08-26T21:59:30.203Z,22.20
2017-08-26T22:01:57.919Z,22.00
2017-08-26T22:04:25.670Z,21.70
2017-08-26T22:06:53.391Z,21.70
2017-08-26T22:09:21.145Z,21.40
2017-08-26T22:11:48.898Z,21.30
2017-08-26T22:14:16.634Z,21.20
2017-08-26T22:16:44.362Z,21.30
2017-08-26T22:19:12.110Z,21.40
2017-08-26T22:21:39.866Z,21.50
2017-08-26T22:24:15.486Z,21.50
2017-08-26T22:26:43.206Z,21.50
2017-08-26T22:29:10.935Z,21.50
2017-08-26T22:31:38.659Z,21.50
2017-08-26T22:34:06.395Z,21.50
2017-08-26T22:36:34.119Z,21.40
2017-08-26T22:39:01.850Z,21.40
2017-08-26T22:41:29.574Z,21.30
2017-08-26T22:43:57.298Z,21.20
2017-08-26T22:46:25.058Z,21.10
2017-08-26T22:48:52.795Z,21.00
2017-08-26T22:51:20.522Z,21.00
2017-08-26T22:53:48.263Z,20.80
2017-08-26T22:56:16.011Z,20.80
2017-08-26T22:58:43.740Z,20.80
2017-08-26T23:01:11.654Z,20.80
2017-08-26T23:03:39.370Z,20.80
2017-08-26T23:06:07.095Z,20.80
2017-08-26T23:08:34.847Z,20.80
2017-08-26T23:11:03.330Z,20.80
2017-08-26T23:13:31.070Z,20.80
2017-08-26T23:15:58.801Z,20.80
2017-08-26T23:18:26.527Z,20.80
2017-08-26T23:20:54.248Z,20.70
2017-08-26T23:23:22.003Z,20.70
2017-08-26T23:25:49.727Z,20.70
2017-08-26T23:28:18.211Z,20.60
2017-08-26T23:30:45.950Z,20.60
2017-08-26T23:33:13.671Z,20.60
2017-08-26T23:35:41.396Z,20.60
2017-08-26T23:38:09.883Z,20.50
2017-08-26T23:40:37.622Z,20.50
2017-08-26T23:43:05.339Z,20.50
2017-08-26T23:45:33.104Z,20.50
2017-08-26T23:48:00.857Z,20.40
2017-08-26T23:50:28.615Z,20.40
2017-08-26T23:52:56.344Z,20.40
2017-08-26T23:55:24.072Z,20.30
2017-08-26T23:57:51.802Z,20.30
